sensor_id;sensor_type;location;lat;lon;timestamp;pressure;altitude;pressure_sealevel;temperature;humidity
67931;BME280;63902;52.000;5.954;2023-04-03T00:00:43;102632.13;;;2.27;82.80
67931;BME280;63902;52.000;5.954;2023-04-03T00:01:43;102625.19;;;2.27;82.67
67931;BME280;63902;52.000;5.954;2023-04-03T00:02:44;102627.81;;;2.29;82.71
67931;BME280;63902;52.000;5.954;2023-04-03T00:03:45;102636.56;;;2.29;82.94
67931;BME280;63902;52.000;5.954;2023-04-03T00:04:46;102626.00;;;2.26;82.77
67931;BME280;63902;52.000;5.954;2023-04-03T00:05:47;102618.16;;;2.24;82.43
67931;BME280;63902;52.000;5.954;2023-04-03T00:06:47;102627.06;;;2.34;82.38
67931;BME280;63902;52.000;5.954;2023-04-03T00:07:47;102630.56;;;2.35;82.33
67931;BME280;63902;52.000;5.954;2023-04-03T00:08:48;102634.91;;;2.33;82.30
67931;BME280;63902;52.000;5.954;2023-04-03T00:09:49;102633.16;;;2.33;82.54
67931;BME280;63902;52.000;5.954;2023-04-03T00:10:50;102630.56;;;2.35;82.22
67931;BME280;63902;52.000;5.954;2023-04-03T00:11:50;102632.25;;;2.31;82.09
67931;BME280;63902;52.000;5.954;2023-04-03T00:12:51;102631.38;;;2.32;82.28
67931;BME280;63902;52.000;5.954;2023-04-03T00:13:51;102642.78;;;2.34;82.60
67931;BME280;63902;52.000;5.954;2023-04-03T00:14:52;102643.66;;;2.35;82.53
67931;BME280;63902;52.000;5.954;2023-04-03T00:15:52;102642.78;;;2.34;82.33
67931;BME280;63902;52.000;5.954;2023-04-03T00:16:53;102636.72;;;2.35;82.40
67931;BME280;63902;52.000;5.954;2023-04-03T00:17:53;102644.59;;;2.37;82.25
67931;BME280;63902;52.000;5.954;2023-04-03T00:18:55;102638.47;;;2.36;82.51
67931;BME280;63902;52.000;5.954;2023-04-03T00:19:56;102641.97;;;2.37;82.59
67931;BME280;63902;52.000;5.954;2023-04-03T00:20:56;102631.38;;;2.32;82.32
67931;BME280;63902;52.000;5.954;2023-04-03T00:21:57;102632.28;;;2.33;82.31
67931;BME280;63902;52.000;5.954;2023-04-03T00:22:57;102619.84;;;2.24;82.38
67931;BME280;63902;52.000;5.954;2023-04-03T00:23:58;102639.28;;;2.34;82.18
67931;BME280;63902;52.000;5.954;2023-04-03T00:24:59;102654.13;;;2.33;82.16
67931;BME280;63902;52.000;5.954;2023-04-03T00:25:59;102639.16;;;2.28;82.24
67931;BME280;63902;52.000;5.954;2023-04-03T00:27:00;102640.91;;;2.27;82.48
67931;BME280;63902;52.000;5.954;2023-04-03T00:28:00;102653.97;;;2.27;82.23
67931;BME280;63902;52.000;5.954;2023-04-03T00:29:01;102650.50;;;2.28;82.40
67931;BME280;63902;52.000;5.954;2023-04-03T00:30:02;102640.72;;;2.19;82.69
67931;BME280;63902;52.000;5.954;2023-04-03T00:31:03;102651.25;;;2.24;82.60
67931;BME280;63902;52.000;5.954;2023-04-03T00:32:04;102614.16;;;2.04;82.93
67931;BME280;63902;52.000;5.954;2023-04-03T00:33:04;102646.00;;;2.22;82.87
67931;BME280;63902;52.000;5.954;2023-04-03T00:34:06;102645.16;;;2.23;82.69
67931;BME280;63902;52.000;5.954;2023-04-03T00:35:07;102641.59;;;2.20;82.83
67931;BME280;63902;52.000;5.954;2023-04-03T00:36:09;102651.25;;;2.22;82.92
67931;BME280;63902;52.000;5.954;2023-04-03T00:37:10;102646.75;;;2.17;83.02
67931;BME280;63902;52.000;5.954;2023-04-03T00:38:10;102627.31;;;2.06;83.04
67931;BME280;63902;52.000;5.954;2023-04-03T00:39:11;102653.00;;;2.23;82.97
67931;BME280;63902;52.000;5.954;2023-04-03T00:40:14;102642.44;;;2.19;82.89
67931;BME280;63902;52.000;5.954;2023-04-03T00:41:14;102645.09;;;2.20;82.88
67931;BME280;63902;52.000;5.954;2023-04-03T00:42:15;102654.78;;;2.24;82.94
67931;BME280;63902;52.000;5.954;2023-04-03T00:43:21;102637.97;;;2.13;82.54
67931;BME280;63902;52.000;5.954;2023-04-03T00:44:23;102652.13;;;2.23;82.80
67931;BME280;63902;52.000;5.954;2023-04-03T00:45:44;102655.59;;;2.22;83.11
67931;BME280;63902;52.000;5.954;2023-04-03T00:46:45;102653.81;;;2.21;83.11
67931;BME280;63902;52.000;5.954;2023-04-03T00:47:45;102655.53;;;2.19;83.00
67931;BME280;63902;52.000;5.954;2023-04-03T00:48:47;102649.44;;;2.20;82.97
67931;BME280;63902;52.000;5.954;2023-04-03T00:49:50;102652.94;;;2.20;83.13
67931;BME280;63902;52.000;5.954;2023-04-03T00:50:52;102654.69;;;2.20;83.21
67931;BME280;63902;52.000;5.954;2023-04-03T00:51:52;102659.88;;;2.18;82.85
67931;BME280;63902;52.000;5.954;2023-04-03T00:52:54;102658.09;;;2.17;83.31
67931;BME280;63902;52.000;5.954;2023-04-03T00:53:56;102646.63;;;2.11;83.35
67931;BME280;63902;52.000;5.954;2023-04-03T00:55:02;102650.94;;;2.09;83.20
67931;BME280;63902;52.000;5.954;2023-04-03T00:56:06;102662.41;;;2.14;83.32
67931;BME280;63902;52.000;5.954;2023-04-03T00:57:09;102663.22;;;2.13;83.15
67931;BME280;63902;52.000;5.954;2023-04-03T00:58:12;102656.22;;;2.10;83.46
67931;BME280;63902;52.000;5.954;2023-04-03T00:59:14;102660.53;;;2.08;83.37
67931;BME280;63902;52.000;5.954;2023-04-03T01:00:19;102657.84;;;2.05;83.54
67931;BME280;63902;52.000;5.954;2023-04-03T01:01:23;102657.78;;;2.04;83.43
67931;BME280;63902;52.000;5.954;2023-04-03T01:02:24;102662.19;;;2.05;83.83
67931;BME280;63902;52.000;5.954;2023-04-03T01:03:25;102661.28;;;2.04;83.82
67931;BME280;63902;52.000;5.954;2023-04-03T01:04:27;102666.56;;;2.06;83.87
67931;BME280;63902;52.000;5.954;2023-04-03T01:05:29;102669.13;;;2.04;83.72
67931;BME280;63902;52.000;5.954;2023-04-03T01:06:32;102663.88;;;2.03;83.59
67931;BME280;63902;52.000;5.954;2023-04-03T01:07:34;102663.91;;;2.04;83.84
67931;BME280;63902;52.000;5.954;2023-04-03T01:08:35;102665.69;;;2.05;84.05
67931;BME280;63902;52.000;5.954;2023-04-03T01:09:36;102672.66;;;2.05;83.96
67931;BME280;63902;52.000;5.954;2023-04-03T01:10:38;102659.41;;;1.98;84.05
67931;BME280;63902;52.000;5.954;2023-04-03T01:11:38;102663.88;;;2.03;83.91
67931;BME280;63902;52.000;5.954;2023-04-03T01:12:40;102671.72;;;2.03;84.20
67931;BME280;63902;52.000;5.954;2023-04-03T01:13:41;102669.13;;;2.03;83.91
67931;BME280;63902;52.000;5.954;2023-04-03T01:14:41;102670.81;;;2.00;83.77
67931;BME280;63902;52.000;5.954;2023-04-03T01:15:42;102668.13;;;1.97;83.65
67931;BME280;63902;52.000;5.954;2023-04-03T01:16:42;102669.84;;;1.97;84.11
67931;BME280;63902;52.000;5.954;2023-04-03T01:17:44;102675.84;;;1.93;84.06
67931;BME280;63902;52.000;5.954;2023-04-03T01:18:46;102681.97;;;1.93;83.83
67931;BME280;63902;52.000;5.954;2023-04-03T01:19:50;102671.53;;;1.93;84.42
67931;BME280;63902;52.000;5.954;2023-04-03T01:21:20;102681.06;;;1.91;84.19
67931;BME280;63902;52.000;5.954;2023-04-03T01:22:28;102684.50;;;1.90;84.11
67931;BME280;63902;52.000;5.954;2023-04-03T01:23:51;102674.94;;;1.91;84.49
67931;BME280;63902;52.000;5.954;2023-04-03T01:24:53;102676.56;;;1.87;84.22
67931;BME280;63902;52.000;5.954;2023-04-03T01:25:55;102668.66;;;1.84;84.49
67931;BME280;63902;52.000;5.954;2023-04-03T01:26:56;102672.19;;;1.86;84.28
67931;BME280;63902;52.000;5.954;2023-04-03T01:27:57;102681.78;;;1.86;85.10
67931;BME280;63902;52.000;5.954;2023-04-03T01:28:59;102679.19;;;1.87;84.42
67931;BME280;63902;52.000;5.954;2023-04-03T01:29:59;102636.75;;;1.63;84.72
67931;BME280;63902;52.000;5.954;2023-04-03T01:31:05;102663.34;;;1.81;84.60
67931;BME280;63902;52.000;5.954;2023-04-03T01:32:10;102679.09;;;1.83;84.32
67931;BME280;63902;52.000;5.954;2023-04-03T01:33:11;102663.13;;;1.72;84.36
67931;BME280;63902;52.000;5.954;2023-04-03T01:34:11;102675.50;;;1.79;84.58
67931;BME280;63902;52.000;5.954;2023-04-03T01:35:12;102677.22;;;1.77;84.44
67931;BME280;63902;52.000;5.954;2023-04-03T01:36:14;102644.41;;;1.56;84.79
67931;BME280;63902;52.000;5.954;2023-04-03T01:37:15;102684.22;;;1.78;85.04
67931;BME280;63902;52.000;5.954;2023-04-03T01:38:16;102679.84;;;1.77;84.95
67931;BME280;63902;52.000;5.954;2023-04-03T01:39:16;102652.34;;;1.60;84.94
67931;BME280;63902;52.000;5.954;2023-04-03T01:40:17;102683.19;;;1.73;84.46
67931;BME280;63902;52.000;5.954;2023-04-03T01:41:18;102653.94;;;1.53;84.89
67931;BME280;63902;52.000;5.954;2023-04-03T01:42:19;102691.03;;;1.73;85.08
67931;BME280;63902;52.000;5.954;2023-04-03T01:43:19;102681.47;;;1.73;85.75
67931;BME280;63902;52.000;5.954;2023-04-03T01:44:20;102679.69;;;1.72;85.21
67931;BME280;63902;52.000;5.954;2023-04-03T01:45:20;102656.75;;;1.62;85.04
67931;BME280;63902;52.000;5.954;2023-04-03T01:46:21;102685.81;;;1.73;85.38
67931;BME280;63902;52.000;5.954;2023-04-03T01:47:23;102677.88;;;1.68;84.96
67931;BME280;63902;52.000;5.954;2023-04-03T01:48:24;102653.03;;;1.52;85.01
67931;BME280;63902;52.000;5.954;2023-04-03T01:49:24;102684.00;;;1.70;85.36
67931;BME280;63902;52.000;5.954;2023-04-03T01:50:25;102675.19;;;1.67;85.62
67931;BME280;63902;52.000;5.954;2023-04-03T01:51:25;102684.84;;;1.69;85.69
67931;BME280;63902;52.000;5.954;2023-04-03T01:52:26;102686.59;;;1.69;85.82
67931;BME280;63902;52.000;5.954;2023-04-03T01:53:26;102688.34;;;1.70;86.50
67931;BME280;63902;52.000;5.954;2023-04-03T01:54:27;102686.53;;;1.66;85.85
67931;BME280;63902;52.000;5.954;2023-04-03T01:55:28;102685.66;;;1.67;85.90
67931;BME280;63902;52.000;5.954;2023-04-03T01:56:28;102691.75;;;1.66;86.10
67931;BME280;63902;52.000;5.954;2023-04-03T01:57:29;102687.34;;;1.65;85.87
67931;BME280;63902;52.000;5.954;2023-04-03T01:58:29;102663.38;;;1.48;85.73
67931;BME280;63902;52.000;5.954;2023-04-03T01:59:30;102692.59;;;1.65;86.01
67931;BME280;63902;52.000;5.954;2023-04-03T02:00:30;102692.47;;;1.60;85.87
67931;BME280;63902;52.000;5.954;2023-04-03T02:01:31;102697.72;;;1.62;85.47
67931;BME280;63902;52.000;5.954;2023-04-03T02:02:33;102679.91;;;1.47;86.01
67931;BME280;63902;52.000;5.954;2023-04-03T02:03:33;102687.91;;;1.53;85.81
67931;BME280;63902;52.000;5.954;2023-04-03T02:04:34;102701.94;;;1.56;85.76
67931;BME280;63902;52.000;5.954;2023-04-03T02:05:34;102698.47;;;1.56;86.29
67931;BME280;63902;52.000;5.954;2023-04-03T02:06:35;102701.06;;;1.56;86.16
67931;BME280;63902;52.000;5.954;2023-04-03T02:07:35;102704.56;;;1.56;85.92
67931;BME280;63902;52.000;5.954;2023-04-03T02:08:36;102703.75;;;1.58;85.67
67931;BME280;63902;52.000;5.954;2023-04-03T02:09:36;102700.19;;;1.55;86.26
67931;BME280;63902;52.000;5.954;2023-04-03T02:10:37;102701.13;;;1.58;86.18
67931;BME280;63902;52.000;5.954;2023-04-03T02:11:37;102695.91;;;1.58;86.06
67931;BME280;63902;52.000;5.954;2023-04-03T02:12:38;102696.72;;;1.56;85.96
67931;BME280;63902;52.000;5.954;2023-04-03T02:13:38;102689.72;;;1.55;85.75
67931;BME280;63902;52.000;5.954;2023-04-03T02:14:39;102691.41;;;1.53;85.78
67931;BME280;63902;52.000;5.954;2023-04-03T02:15:39;102689.59;;;1.51;86.43
67931;BME280;63902;52.000;5.954;2023-04-03T02:16:40;102694.03;;;1.53;86.88
67931;BME280;63902;52.000;5.954;2023-04-03T02:17:42;102696.66;;;1.53;86.85
67931;BME280;63902;52.000;5.954;2023-04-03T02:18:42;102695.75;;;1.53;86.76
67931;BME280;63902;52.000;5.954;2023-04-03T02:19:43;102696.56;;;1.50;86.22
67931;BME280;63902;52.000;5.954;2023-04-03T02:20:43;102700.97;;;1.51;86.70
67931;BME280;63902;52.000;5.954;2023-04-03T02:21:44;102694.88;;;1.52;87.00
67931;BME280;63902;52.000;5.954;2023-04-03T02:22:44;102704.47;;;1.52;86.48
67931;BME280;63902;52.000;5.954;2023-04-03T02:23:45;102660.31;;;1.31;86.97
67931;BME280;63902;52.000;5.954;2023-04-03T02:24:45;102660.25;;;1.28;87.58
67931;BME280;63902;52.000;5.954;2023-04-03T02:25:46;102707.88;;;1.49;87.08
67931;BME280;63902;52.000;5.954;2023-04-03T02:26:46;102702.66;;;1.49;87.84
67931;BME280;63902;52.000;5.954;2023-04-03T02:27:47;102674.31;;;1.33;86.90
67931;BME280;63902;52.000;5.954;2023-04-03T02:28:47;102703.47;;;1.48;87.68
67931;BME280;63902;52.000;5.954;2023-04-03T02:29:48;102703.47;;;1.48;87.13
67931;BME280;63902;52.000;5.954;2023-04-03T02:30:48;102706.16;;;1.50;87.64
67931;BME280;63902;52.000;5.954;2023-04-03T02:31:49;102699.97;;;1.48;86.98
67931;BME280;63902;52.000;5.954;2023-04-03T02:32:51;102705.13;;;1.45;86.79
67931;BME280;63902;52.000;5.954;2023-04-03T02:33:51;102707.72;;;1.43;87.51
67931;BME280;63902;52.000;5.954;2023-04-03T02:34:51;102706.88;;;1.44;87.85
67931;BME280;63902;52.000;5.954;2023-04-03T02:35:53;102703.38;;;1.44;87.55
67931;BME280;63902;52.000;5.954;2023-04-03T02:36:54;102702.44;;;1.42;88.05
67931;BME280;63902;52.000;5.954;2023-04-03T02:37:54;102698.00;;;1.39;87.56
67931;BME280;63902;52.000;5.954;2023-04-03T02:38:55;102715.50;;;1.42;87.97
67931;BME280;63902;52.000;5.954;2023-04-03T02:39:55;102694.44;;;1.36;88.00
67931;BME280;63902;52.000;5.954;2023-04-03T02:41:00;102700.63;;;1.39;87.39
67931;BME280;63902;52.000;5.954;2023-04-03T02:42:00;102705.84;;;1.38;87.46
67931;BME280;63902;52.000;5.954;2023-04-03T02:43:01;102704.84;;;1.34;87.18
67931;BME280;63902;52.000;5.954;2023-04-03T02:44:02;102696.03;;;1.30;89.28
67931;BME280;63902;52.000;5.954;2023-04-03T02:45:03;102704.91;;;1.37;88.20
67931;BME280;63902;52.000;5.954;2023-04-03T02:46:04;102707.53;;;1.37;87.59
67931;BME280;63902;52.000;5.954;2023-04-03T02:47:04;102704.03;;;1.35;88.56
67931;BME280;63902;52.000;5.954;2023-04-03T02:48:06;102683.75;;;1.26;88.14
67931;BME280;63902;52.000;5.954;2023-04-03T02:49:07;102705.78;;;1.36;88.14
67931;BME280;63902;52.000;5.954;2023-04-03T02:50:08;102706.63;;;1.35;87.58
67931;BME280;63902;52.000;5.954;2023-04-03T02:51:08;102701.34;;;1.33;87.74
67931;BME280;63902;52.000;5.954;2023-04-03T02:52:09;102695.03;;;1.25;87.26
67931;BME280;63902;52.000;5.954;2023-04-03T02:53:09;102701.28;;;1.30;87.78
67931;BME280;63902;52.000;5.954;2023-04-03T02:54:10;102703.00;;;1.30;87.97
67931;BME280;63902;52.000;5.954;2023-04-03T02:55:13;102701.25;;;1.29;88.33
67931;BME280;63902;52.000;5.954;2023-04-03T02:56:14;102705.63;;;1.30;87.77
67931;BME280;63902;52.000;5.954;2023-04-03T02:57:14;102704.69;;;1.28;87.82
67931;BME280;63902;52.000;5.954;2023-04-03T02:58:15;102699.38;;;1.25;88.09
67931;BME280;63902;52.000;5.954;2023-04-03T02:59:16;102688.66;;;1.16;88.61
67931;BME280;63902;52.000;5.954;2023-04-03T03:00:17;102713.31;;;1.25;88.48
67931;BME280;63902;52.000;5.954;2023-04-03T03:01:18;102706.28;;;1.23;88.42
67931;BME280;63902;52.000;5.954;2023-04-03T03:02:18;102714.19;;;1.26;89.10
67931;BME280;63902;52.000;5.954;2023-04-03T03:03:20;102713.31;;;1.25;88.90
67931;BME280;63902;52.000;5.954;2023-04-03T03:04:21;102711.63;;;1.27;89.31
67931;BME280;63902;52.000;5.954;2023-04-03T03:05:21;102676.16;;;1.04;88.80
67931;BME280;63902;52.000;5.954;2023-04-03T03:06:22;102690.41;;;1.15;88.46
67931;BME280;63902;52.000;5.954;2023-04-03T03:07:22;102713.28;;;1.24;88.66
67931;BME280;63902;52.000;5.954;2023-04-03T03:08:23;102694.63;;;1.11;88.68
67931;BME280;63902;52.000;5.954;2023-04-03T03:09:23;102678.78;;;1.04;88.33
67931;BME280;63902;52.000;5.954;2023-04-03T03:10:24;102712.28;;;1.19;88.67
67931;BME280;63902;52.000;5.954;2023-04-03T03:11:25;102714.00;;;1.18;88.67
67931;BME280;63902;52.000;5.954;2023-04-03T03:12:25;102713.00;;;1.13;89.36
67931;BME280;63902;52.000;5.954;2023-04-03T03:13:26;102718.44;;;1.21;89.39
67931;BME280;63902;52.000;5.954;2023-04-03T03:14:26;102712.28;;;1.19;88.76
67931;BME280;63902;52.000;5.954;2023-04-03T03:15:27;102719.25;;;1.18;88.76
67931;BME280;63902;52.000;5.954;2023-04-03T03:16:27;102727.91;;;1.17;88.45
67931;BME280;63902;52.000;5.954;2023-04-03T03:17:28;102722.66;;;1.16;89.22
67931;BME280;63902;52.000;5.954;2023-04-03T03:18:30;102726.09;;;1.15;88.77
67931;BME280;63902;52.000;5.954;2023-04-03T03:19:30;102730.44;;;1.14;89.14
67931;BME280;63902;52.000;5.954;2023-04-03T03:20:31;102720.69;;;1.08;88.54
67931;BME280;63902;52.000;5.954;2023-04-03T03:21:31;102727.78;;;1.13;88.84
67931;BME280;63902;52.000;5.954;2023-04-03T03:22:32;102724.25;;;1.10;88.75
67931;BME280;63902;52.000;5.954;2023-04-03T03:23:32;102725.91;;;1.08;88.64
67931;BME280;63902;52.000;5.954;2023-04-03T03:24:33;102720.69;;;1.08;88.67
67931;BME280;63902;52.000;5.954;2023-04-03T03:25:34;102729.38;;;1.07;88.74
67931;BME280;63902;52.000;5.954;2023-04-03T03:26:37;102726.72;;;1.06;88.69
67931;BME280;63902;52.000;5.954;2023-04-03T03:27:38;102728.44;;;1.05;88.49
67931;BME280;63902;52.000;5.954;2023-04-03T03:28:39;102726.72;;;1.06;88.71
67931;BME280;63902;52.000;5.954;2023-04-03T03:29:39;102718.94;;;1.07;88.79
67931;BME280;63902;52.000;5.954;2023-04-03T03:30:40;102729.31;;;1.06;89.03
67931;BME280;63902;52.000;5.954;2023-04-03T03:31:40;102728.44;;;1.05;88.78
67931;BME280;63902;52.000;5.954;2023-04-03T03:32:41;102734.53;;;1.04;88.65
67931;BME280;63902;52.000;5.954;2023-04-03T03:33:43;102735.31;;;1.02;88.75
67931;BME280;63902;52.000;5.954;2023-04-03T03:34:43;102725.56;;;0.96;89.01
67931;BME280;63902;52.000;5.954;2023-04-03T03:35:44;102730.81;;;0.96;89.02
67931;BME280;63902;52.000;5.954;2023-04-03T03:36:44;102739.56;;;0.98;88.78
67931;BME280;63902;52.000;5.954;2023-04-03T03:37:45;102741.25;;;0.96;88.70
67931;BME280;63902;52.000;5.954;2023-04-03T03:38:45;102734.16;;;0.92;88.41
67931;BME280;63902;52.000;5.954;2023-04-03T03:39:46;102745.53;;;0.94;89.08
67931;BME280;63902;52.000;5.954;2023-04-03T03:40:47;102742.91;;;0.94;89.04
67931;BME280;63902;52.000;5.954;2023-04-03T03:41:47;102740.31;;;0.94;89.23
67931;BME280;63902;52.000;5.954;2023-04-03T03:42:48;102736.81;;;0.94;89.09
67931;BME280;63902;52.000;5.954;2023-04-03T03:43:48;102735.09;;;0.94;89.19
67931;BME280;63902;52.000;5.954;2023-04-03T03:44:49;102731.53;;;0.92;89.18
67931;BME280;63902;52.000;5.954;2023-04-03T03:45:50;102726.91;;;0.82;89.47
67931;BME280;63902;52.000;5.954;2023-04-03T03:46:51;102740.22;;;0.91;89.42
67931;BME280;63902;52.000;5.954;2023-04-03T03:47:51;102749.81;;;0.92;89.23
67931;BME280;63902;52.000;5.954;2023-04-03T03:48:53;102745.38;;;0.89;88.72
67931;BME280;63902;52.000;5.954;2023-04-03T03:49:53;102746.22;;;0.87;88.87
67931;BME280;63902;52.000;5.954;2023-04-03T03:50:54;102745.28;;;0.85;89.13
67931;BME280;63902;52.000;5.954;2023-04-03T03:51:54;102737.44;;;0.85;89.55
67931;BME280;63902;52.000;5.954;2023-04-03T03:52:55;102741.78;;;0.84;89.04
67931;BME280;63902;52.000;5.954;2023-04-03T03:53:55;102724.00;;;0.73;89.04
67931;BME280;63902;52.000;5.954;2023-04-03T03:54:56;102746.06;;;0.82;89.40
67931;BME280;63902;52.000;5.954;2023-04-03T03:55:56;102749.56;;;0.83;88.95
67931;BME280;63902;52.000;5.954;2023-04-03T03:56:57;102750.41;;;0.82;88.96
67931;BME280;63902;52.000;5.954;2023-04-03T03:57:57;102743.34;;;0.79;89.40
67931;BME280;63902;52.000;5.954;2023-04-03T03:58:58;102746.00;;;0.81;89.01
67931;BME280;63902;52.000;5.954;2023-04-03T03:59:58;102748.59;;;0.79;89.31
67931;BME280;63902;52.000;5.954;2023-04-03T04:01:00;102748.59;;;0.79;90.29
67931;BME280;63902;52.000;5.954;2023-04-03T04:02:01;102727.28;;;0.65;89.55
67931;BME280;63902;52.000;5.954;2023-04-03T04:03:01;102733.47;;;0.69;89.67
67931;BME280;63902;52.000;5.954;2023-04-03T04:04:03;102708.72;;;0.56;89.83
67931;BME280;63902;52.000;5.954;2023-04-03T04:05:04;102742.41;;;0.76;89.61
67931;BME280;63902;52.000;5.954;2023-04-03T04:06:05;102748.50;;;0.76;90.37
67931;BME280;63902;52.000;5.954;2023-04-03T04:07:05;102747.66;;;0.77;90.06
67931;BME280;63902;52.000;5.954;2023-04-03T04:08:06;102742.41;;;0.76;90.14
67931;BME280;63902;52.000;5.954;2023-04-03T04:09:06;102742.41;;;0.76;90.48
67931;BME280;63902;52.000;5.954;2023-04-03T04:10:08;102749.41;;;0.78;91.41
67931;BME280;63902;52.000;5.954;2023-04-03T04:11:09;102749.41;;;0.78;90.62
67931;BME280;63902;52.000;5.954;2023-04-03T04:12:09;102752.00;;;0.78;90.63
67931;BME280;63902;52.000;5.954;2023-04-03T04:13:09;102754.59;;;0.77;89.80
67931;BME280;63902;52.000;5.954;2023-04-03T04:14:10;102752.84;;;0.76;90.08
67931;BME280;63902;52.000;5.954;2023-04-03T04:15:10;102751.03;;;0.73;89.32
67931;BME280;63902;52.000;5.954;2023-04-03T04:16:11;102753.53;;;0.70;89.35
67931;BME280;63902;52.000;5.954;2023-04-03T04:17:12;102747.41;;;0.70;89.65
67931;BME280;63902;52.000;5.954;2023-04-03T04:18:12;102751.72;;;0.68;89.77
67931;BME280;63902;52.000;5.954;2023-04-03T04:19:14;102750.81;;;0.67;90.37
67931;BME280;63902;52.000;5.954;2023-04-03T04:20:15;102746.44;;;0.66;90.29
67931;BME280;63902;52.000;5.954;2023-04-03T04:21:15;102753.41;;;0.67;91.09
67931;BME280;63902;52.000;5.954;2023-04-03T04:22:16;102750.78;;;0.65;90.88
67931;BME280;63902;52.000;5.954;2023-04-03T04:23:17;102722.31;;;0.46;90.75
67931;BME280;63902;52.000;5.954;2023-04-03T04:24:18;102757.66;;;0.63;90.62
67931;BME280;63902;52.000;5.954;2023-04-03T04:25:18;102756.63;;;0.58;90.43
67931;BME280;63902;52.000;5.954;2023-04-03T04:26:19;102750.59;;;0.59;90.85
67931;BME280;63902;52.000;5.954;2023-04-03T04:27:19;102754.03;;;0.58;90.38
67931;BME280;63902;52.000;5.954;2023-04-03T04:28:20;102757.47;;;0.57;91.13
67931;BME280;63902;52.000;5.954;2023-04-03T04:29:20;102740.63;;;0.48;90.57
67931;BME280;63902;52.000;5.954;2023-04-03T04:30:21;102754.81;;;0.56;90.43
67931;BME280;63902;52.000;5.954;2023-04-03T04:31:21;102758.28;;;0.55;90.58
67931;BME280;63902;52.000;5.954;2023-04-03T04:32:22;102749.47;;;0.51;90.47
67931;BME280;63902;52.000;5.954;2023-04-03T04:33:22;102745.03;;;0.49;90.76
67931;BME280;63902;52.000;5.954;2023-04-03T04:34:24;102757.31;;;0.53;91.41
67931;BME280;63902;52.000;5.954;2023-04-03T04:35:25;102733.47;;;0.40;91.31
67931;BME280;63902;52.000;5.954;2023-04-03T04:36:25;102763.41;;;0.52;91.62
67931;BME280;63902;52.000;5.954;2023-04-03T04:37:26;102752.88;;;0.49;90.80
67931;BME280;63902;52.000;5.954;2023-04-03T04:38:26;102763.31;;;0.49;90.93
67931;BME280;63902;52.000;5.954;2023-04-03T04:39:27;102753.69;;;0.48;91.67
67931;BME280;63902;52.000;5.954;2023-04-03T04:40:27;102761.50;;;0.48;92.19
67931;BME280;63902;52.000;5.954;2023-04-03T04:41:28;102762.34;;;0.47;91.66
67931;BME280;63902;52.000;5.954;2023-04-03T04:42:29;102720.75;;;0.24;91.34
67931;BME280;63902;52.000;5.954;2023-04-03T04:43:29;102764.09;;;0.46;90.72
67931;BME280;63902;52.000;5.954;2023-04-03T04:44:30;102758.59;;;0.37;91.16
67931;BME280;63902;52.000;5.954;2023-04-03T04:45:30;102737.38;;;0.28;91.11
67931;BME280;63902;52.000;5.954;2023-04-03T04:46:31;102765.66;;;0.41;91.91
67931;BME280;63902;52.000;5.954;2023-04-03T04:47:32;102761.28;;;0.40;91.13
67931;BME280;63902;52.000;5.954;2023-04-03T04:48:33;102762.09;;;0.39;91.20
67931;BME280;63902;52.000;5.954;2023-04-03T04:49:35;102758.63;;;0.38;90.60
67931;BME280;63902;52.000;5.954;2023-04-03T04:50:35;102769.94;;;0.39;91.49
67931;BME280;63902;52.000;5.954;2023-04-03T04:51:36;102768.19;;;0.38;92.06
67931;BME280;63902;52.000;5.954;2023-04-03T04:52:37;102767.34;;;0.39;91.96
67931;BME280;63902;52.000;5.954;2023-04-03T04:53:37;102764.69;;;0.37;91.60
67931;BME280;63902;52.000;5.954;2023-04-03T04:54:38;102775.16;;;0.39;91.37
67931;BME280;63902;52.000;5.954;2023-04-03T04:55:38;102763.72;;;0.34;91.01
67931;BME280;63902;52.000;5.954;2023-04-03T04:56:39;102772.53;;;0.37;91.12
67931;BME280;63902;52.000;5.954;2023-04-03T04:57:39;102777.66;;;0.34;90.95
67931;BME280;63902;52.000;5.954;2023-04-03T04:58:40;102775.91;;;0.35;91.24
67931;BME280;63902;52.000;5.954;2023-04-03T04:59:40;102763.59;;;0.31;91.24
67931;BME280;63902;52.000;5.954;2023-04-03T05:00:41;102772.34;;;0.33;90.69
67931;BME280;63902;52.000;5.954;2023-04-03T05:01:41;102778.47;;;0.33;91.55
67931;BME280;63902;52.000;5.954;2023-04-03T05:02:42;102776.63;;;0.31;91.03
67931;BME280;63902;52.000;5.954;2023-04-03T05:03:42;102780.16;;;0.31;91.37
67931;BME280;63902;52.000;5.954;2023-04-03T05:04:44;102787.91;;;0.30;90.86
67931;BME280;63902;52.000;5.954;2023-04-03T05:05:45;102783.56;;;0.29;91.79
67931;BME280;63902;52.000;5.954;2023-04-03T05:06:45;102781.81;;;0.29;91.45
67931;BME280;63902;52.000;5.954;2023-04-03T05:07:46;102777.28;;;0.24;90.77
67931;BME280;63902;52.000;5.954;2023-04-03T05:08:46;102784.38;;;0.28;91.12
67931;BME280;63902;52.000;5.954;2023-04-03T05:09:47;102785.22;;;0.27;91.81
67931;BME280;63902;52.000;5.954;2023-04-03T05:10:47;102763.00;;;0.12;91.56
67931;BME280;63902;52.000;5.954;2023-04-03T05:11:48;102789.66;;;0.29;91.17
67931;BME280;63902;52.000;5.954;2023-04-03T05:12:48;102789.66;;;0.29;91.04
67931;BME280;63902;52.000;5.954;2023-04-03T05:13:49;102784.38;;;0.28;90.40
67931;BME280;63902;52.000;5.954;2023-04-03T05:14:50;102788.72;;;0.27;91.14
67931;BME280;63902;52.000;5.954;2023-04-03T05:15:50;102796.50;;;0.26;90.70
67931;BME280;63902;52.000;5.954;2023-04-03T05:16:50;102792.16;;;0.26;91.47
67931;BME280;63902;52.000;5.954;2023-04-03T05:17:51;102786.88;;;0.25;90.90
67931;BME280;63902;52.000;5.954;2023-04-03T05:18:51;102797.31;;;0.25;90.37
67931;BME280;63902;52.000;5.954;2023-04-03T05:19:53;102782.22;;;0.14;90.60
67931;BME280;63902;52.000;5.954;2023-04-03T05:20:54;102787.47;;;0.16;90.81
67931;BME280;63902;52.000;5.954;2023-04-03T05:21:54;102793.72;;;0.21;90.69
67931;BME280;63902;52.000;5.954;2023-04-03T05:22:55;102803.28;;;0.20;90.72
67931;BME280;63902;52.000;5.954;2023-04-03T05:23:55;102790.25;;;0.20;90.45